sensor_id;sensor_type;location;lat;lon;timestamp;temperature;humidity
1592;DHT22;789;51.612;7.510;2023-08-24T00:01:08;21.30;1.00
1592;DHT22;789;51.612;7.510;2023-08-24T00:03:38;21.20;1.00
1592;DHT22;789;51.612;7.510;2023-08-24T00:06:05;21.20;1.00
1592;DHT22;789;51.612;7.510;2023-08-24T00:08:32;21.20;1.00
1592;DHT22;789;51.612;7.510;2023-08-24T00:10:59;21.10;1.00
1592;DHT22;789;51.612;7.510;2023-08-24T00:13:26;21.10;1.00
1592;DHT22;789;51.612;7.510;2023-08-24T00:15:54;21.00;1.00
1592;DHT22;789;51.612;7.510;2023-08-24T00:18:21;21.00;1.00
1592;DHT22;789;51.612;7.510;2023-08-24T00:20:48;21.00;1.00
1592;DHT22;789;51.612;7.510;2023-08-24T00:23:15;21.00;1.00
1592;DHT22;789;51.612;7.510;2023-08-24T00:25:41;21.00;1.00
1592;DHT22;789;51.612;7.510;2023-08-24T00:28:08;21.00;1.00
1592;DHT22;789;51.612;7.510;2023-08-24T00:30:36;21.00;1.00
1592;DHT22;789;51.612;7.510;2023-08-24T00:33:05;20.90;1.00
1592;DHT22;789;51.612;7.510;2023-08-24T00:35:31;20.90;1.00
1592;DHT22;789;51.612;7.510;2023-08-24T00:37:58;20.90;1.00
1592;DHT22;789;51.612;7.510;2023-08-24T00:40:25;20.90;1.00
1592;DHT22;789;51.612;7.510;2023-08-24T00:42:52;20.90;1.00
1592;DHT22;789;51.612;7.510;2023-08-24T00:45:19;20.90;1.00
1592;DHT22;789;51.612;7.510;2023-08-24T00:47:47;20.90;1.00
1592;DHT22;789;51.612;7.510;2023-08-24T00:50:16;20.90;1.00
1592;DHT22;789;51.612;7.510;2023-08-24T00:52:44;20.80;1.00
1592;DHT22;789;51.612;7.510;2023-08-24T00:55:11;20.80;1.00
1592;DHT22;789;51.612;7.510;2023-08-24T00:57:40;20.80;1.00
1592;DHT22;789;51.612;7.510;2023-08-24T01:00:07;20.80;1.00
1592;DHT22;789;51.612;7.510;2023-08-24T01:02:35;20.80;1.00
1592;DHT22;789;51.612;7.510;2023-08-24T01:05:02;20.80;1.00
1592;DHT22;789;51.612;7.510;2023-08-24T01:07:32;20.70;1.00
1592;DHT22;789;51.612;7.510;2023-08-24T01:10:00;20.70;1.00
1592;DHT22;789;51.612;7.510;2023-08-24T01:12:32;20.60;1.00
1592;DHT22;789;51.612;7.510;2023-08-24T01:15:06;20.70;1.00
1592;DHT22;789;51.612;7.510;2023-08-24T01:17:35;20.70;1.00
1592;DHT22;789;51.612;7.510;2023-08-24T01:20:06;20.70;1.00
1592;DHT22;789;51.612;7.510;2023-08-24T01:22:46;20.70;1.00
1592;DHT22;789;51.612;7.510;2023-08-24T01:25:21;20.60;1.00
1592;DHT22;789;51.612;7.510;2023-08-24T01:27:52;20.60;1.00
1592;DHT22;789;51.612;7.510;2023-08-24T01:30:20;20.60;1.00
1592;DHT22;789;51.612;7.510;2023-08-24T01:32:47;20.60;1.00
1592;DHT22;789;51.612;7.510;2023-08-24T01:35:14;20.60;1.00
1592;DHT22;789;51.612;7.510;2023-08-24T01:37:41;20.60;1.00
1592;DHT22;789;51.612;7.510;2023-08-24T01:40:14;20.60;1.00
1592;DHT22;789;51.612;7.510;2023-08-24T01:43:02;20.60;1.00
1592;DHT22;789;51.612;7.510;2023-08-24T01:45:32;20.50;1.00
1592;DHT22;789;51.612;7.510;2023-08-24T01:48:01;20.50;1.00
1592;DHT22;789;51.612;7.510;2023-08-24T01:50:30;20.40;1.00
1592;DHT22;789;51.612;7.510;2023-08-24T01:52:57;20.40;1.00
1592;DHT22;789;51.612;7.510;2023-08-24T01:55:25;20.40;1.00
1592;DHT22;789;51.612;7.510;2023-08-24T01:57:55;20.20;1.00
1592;DHT22;789;51.612;7.510;2023-08-24T02:00:22;20.20;1.00
1592;DHT22;789;51.612;7.510;2023-08-24T02:02:49;20.20;1.00
1592;DHT22;789;51.612;7.510;2023-08-24T02:05:16;20.10;1.00
1592;DHT22;789;51.612;7.510;2023-08-24T02:07:43;20.10;1.00
1592;DHT22;789;51.612;7.510;2023-08-24T02:10:11;20.00;1.00
1592;DHT22;789;51.612;7.510;2023-08-24T02:12:39;20.00;1.00
1592;DHT22;789;51.612;7.510;2023-08-24T02:15:08;20.00;1.00
1592;DHT22;789;51.612;7.510;2023-08-24T02:17:35;19.90;1.00
1592;DHT22;789;51.612;7.510;2023-08-24T02:20:01;19.90;1.00
1592;DHT22;789;51.612;7.510;2023-08-24T02:22:30;19.90;1.00
1592;DHT22;789;51.612;7.510;2023-08-24T02:24:57;19.90;1.00
1592;DHT22;789;51.612;7.510;2023-08-24T02:27:24;19.80;1.00
1592;DHT22;789;51.612;7.510;2023-08-24T02:29:51;19.90;1.00
1592;DHT22;789;51.612;7.510;2023-08-24T02:32:20;19.80;1.00
1592;DHT22;789;51.612;7.510;2023-08-24T02:34:46;19.80;1.00
1592;DHT22;789;51.612;7.510;2023-08-24T02:37:13;19.80;1.00
1592;DHT22;789;51.612;7.510;2023-08-24T02:39:43;19.80;1.00
1592;DHT22;789;51.612;7.510;2023-08-24T02:42:10;19.80;1.00
1592;DHT22;789;51.612;7.510;2023-08-24T02:44:36;19.70;1.00
1592;DHT22;789;51.612;7.510;2023-08-24T02:47:04;19.80;1.00
1592;DHT22;789;51.612;7.510;2023-08-24T02:49:32;19.70;1.00
1592;DHT22;789;51.612;7.510;2023-08-24T02:52:00;19.70;1.00
1592;DHT22;789;51.612;7.510;2023-08-24T02:54:27;19.60;1.00
1592;DHT22;789;51.612;7.510;2023-08-24T02:56:56;19.60;1.00
1592;DHT22;789;51.612;7.510;2023-08-24T02:59:23;19.60;1.00
1592;DHT22;789;51.612;7.510;2023-08-24T03:01:50;19.60;1.00
1592;DHT22;789;51.612;7.510;2023-08-24T03:04:17;19.60;1.00
1592;DHT22;789;51.612;7.510;2023-08-24T03:06:46;19.50;1.00
1592;DHT22;789;51.612;7.510;2023-08-24T03:09:13;19.50;1.00
1592;DHT22;789;51.612;7.510;2023-08-24T03:11:43;19.60;1.00
1592;DHT22;789;51.612;7.510;2023-08-24T03:14:10;19.40;1.00
1592;DHT22;789;51.612;7.510;2023-08-24T03:16:37;19.60;1.00
1592;DHT22;789;51.612;7.510;2023-08-24T03:19:05;19.50;1.00
1592;DHT22;789;51.612;7.510;2023-08-24T03:21:35;19.50;1.00
1592;DHT22;789;51.612;7.510;2023-08-24T03:24:04;19.50;1.00
1592;DHT22;789;51.612;7.510;2023-08-24T03:26:31;19.60;1.00
1592;DHT22;789;51.612;7.510;2023-08-24T03:28:58;19.50;1.00
1592;DHT22;789;51.612;7.510;2023-08-24T03:31:27;19.50;1.00
1592;DHT22;789;51.612;7.510;2023-08-24T03:33:55;19.70;1.00
1592;DHT22;789;51.612;7.510;2023-08-24T03:36:23;19.60;1.00
1592;DHT22;789;51.612;7.510;2023-08-24T03:38:51;19.70;1.00
1592;DHT22;789;51.612;7.510;2023-08-24T03:41:19;19.60;1.00
1592;DHT22;789;51.612;7.510;2023-08-24T03:43:46;19.60;1.00
1592;DHT22;789;51.612;7.510;2023-08-24T03:46:15;19.60;1.00
1592;DHT22;789;51.612;7.510;2023-08-24T03:48:42;19.60;1.00
1592;DHT22;789;51.612;7.510;2023-08-24T03:51:11;19.60;1.00
1592;DHT22;789;51.612;7.510;2023-08-24T03:53:37;19.60;1.00
1592;DHT22;789;51.612;7.510;2023-08-24T03:56:04;19.70;1.00
1592;DHT22;789;51.612;7.510;2023-08-24T03:58:33;19.80;1.00
1592;DHT22;789;51.612;7.510;2023-08-24T04:01:00;19.70;1.00
1592;DHT22;789;51.612;7.510;2023-08-24T04:03:27;19.70;1.00
1592;DHT22;789;51.612;7.510;2023-08-24T04:05:54;19.80;1.00
1592;DHT22;789;51.612;7.510;2023-08-24T04:08:21;19.80;1.00
1592;DHT22;789;51.612;7.510;2023-08-24T04:10:47;19.80;1.00
1592;DHT22;789;51.612;7.510;2023-08-24T04:13:17;19.80;1.00
1592;DHT22;789;51.612;7.510;2023-08-24T04:15:45;19.80;1.00
1592;DHT22;789;51.612;7.510;2023-08-24T04:18:12;19.80;1.00
1592;DHT22;789;51.612;7.510;2023-08-24T04:20:38;19.80;1.00
1592;DHT22;789;51.612;7.510;2023-08-24T04:23:06;19.80;1.00
1592;DHT22;789;51.612;7.510;2023-08-24T04:25:32;19.80;1.00
1592;DHT22;789;51.612;7.510;2023-08-24T04:27:59;19.90;1.00
1592;DHT22;789;51.612;7.510;2023-08-24T04:30:28;19.80;1.00
1592;DHT22;789;51.612;7.510;2023-08-24T04:32:56;19.80;1.00
1592;DHT22;789;51.612;7.510;2023-08-24T04:35:25;19.80;1.00
1592;DHT22;789;51.612;7.510;2023-08-24T04:37:52;19.80;1.00
1592;DHT22;789;51.612;7.510;2023-08-24T04:40:20;19.80;1.00
1592;DHT22;789;51.612;7.510;2023-08-24T04:42:47;19.80;1.00
1592;DHT22;789;51.612;7.510;2023-08-24T04:45:14;19.80;1.00
1592;DHT22;789;51.612;7.510;2023-08-24T04:47:41;19.80;1.00
1592;DHT22;789;51.612;7.510;2023-08-24T04:50:10;19.80;1.00
1592;DHT22;789;51.612;7.510;2023-08-24T04:52:37;19.80;1.00
1592;DHT22;789;51.612;7.510;2023-08-24T04:55:04;19.80;1.00
1592;DHT22;789;51.612;7.510;2023-08-24T04:57:31;19.90;1.00
1592;DHT22;789;51.612;7.510;2023-08-24T04:59:58;19.90;1.00
1592;DHT22;789;51.612;7.510;2023-08-24T05:02:25;19.90;1.00
1592;DHT22;789;51.612;7.510;2023-08-24T05:04:51;19.90;1.00
1592;DHT22;789;51.612;7.510;2023-08-24T05:07:20;19.90;1.00
1592;DHT22;789;51.612;7.510;2023-08-24T05:09:48;19.80;1.00
1592;DHT22;789;51.612;7.510;2023-08-24T05:12:14;19.80;1.00
1592;DHT22;789;51.612;7.510;2023-08-24T05:14:41;19.70;1.00
1592;DHT22;789;51.612;7.510;2023-08-24T05:17:09;19.70;1.00
1592;DHT22;789;51.612;7.510;2023-08-24T05:19:39;19.70;1.00
1592;DHT22;789;51.612;7.510;2023-08-24T05:22:05;19.60;1.00
1592;DHT22;789;51.612;7.510;2023-08-24T05:24:33;19.50;1.00
1592;DHT22;789;51.612;7.510;2023-08-24T05:27:00;19.50;1.00
1592;DHT22;789;51.612;7.510;2023-08-24T05:29:27;19.40;1.00
1592;DHT22;789;51.612;7.510;2023-08-24T05:31:54;19.30;1.00
1592;DHT22;789;51.612;7.510;2023-08-24T05:34:21;19.10;1.00
1592;DHT22;789;51.612;7.510;2023-08-24T05:36:47;19.00;1.00
1592;DHT22;789;51.612;7.510;2023-08-24T05:39:14;18.90;1.00
1592;DHT22;789;51.612;7.510;2023-08-24T05:41:43;18.80;1.00
1592;DHT22;789;51.612;7.510;2023-08-24T05:44:10;18.80;1.00
1592;DHT22;789;51.612;7.510;2023-08-24T05:46:36;18.90;1.00
1592;DHT22;789;51.612;7.510;2023-08-24T05:49:03;18.90;1.00
1592;DHT22;789;51.612;7.510;2023-08-24T05:51:30;19.00;1.00
1592;DHT22;789;51.612;7.510;2023-08-24T05:53:57;19.00;1.00
1592;DHT22;789;51.612;7.510;2023-08-24T05:56:26;19.10;1.00
1592;DHT22;789;51.612;7.510;2023-08-24T05:58:57;19.10;1.00
1592;DHT22;789;51.612;7.510;2023-08-24T06:01:24;19.20;1.00
1592;DHT22;789;51.612;7.510;2023-08-24T06:03:51;19.30;1.00
1592;DHT22;789;51.612;7.510;2023-08-24T06:06:18;19.50;1.00
1592;DHT22;789;51.612;7.510;2023-08-24T06:08:44;19.50;1.00
1592;DHT22;789;51.612;7.510;2023-08-24T06:11:11;19.70;1.00
1592;DHT22;789;51.612;7.510;2023-08-24T06:13:38;19.70;1.00
1592;DHT22;789;51.612;7.510;2023-08-24T06:16:06;19.80;1.00
1592;DHT22;789;51.612;7.510;2023-08-24T06:18:33;19.90;1.00
1592;DHT22;789;51.612;7.510;2023-08-24T06:21:01;20.00;1.00
1592;DHT22;789;51.612;7.510;2023-08-24T06:23:28;20.10;1.00
1592;DHT22;789;51.612;7.510;2023-08-24T06:25:55;20.20;1.00
1592;DHT22;789;51.612;7.510;2023-08-24T06:28:21;20.30;1.00
1592;DHT22;789;51.612;7.510;2023-08-24T06:30:48;20.40;1.00
1592;DHT22;789;51.612;7.510;2023-08-24T06:33:20;20.60;1.00
1592;DHT22;789;51.612;7.510;2023-08-24T06:35:47;20.70;1.00
1592;DHT22;789;51.612;7.510;2023-08-24T06:38:15;20.90;1.00
1592;DHT22;789;51.612;7.510;2023-08-24T06:40:42;21.00;1.00
1592;DHT22;789;51.612;7.510;2023-08-24T06:43:09;21.30;1.00
1592;DHT22;789;51.612;7.510;2023-08-24T06:45:36;21.60;1.00
1592;DHT22;789;51.612;7.510;2023-08-24T06:48:04;21.90;1.00
1592;DHT22;789;51.612;7.510;2023-08-24T06:50:33;22.30;1.00
1592;DHT22;789;51.612;7.510;2023-08-24T06:53:02;22.60;1.00
1592;DHT22;789;51.612;7.510;2023-08-24T06:55:29;23.10;1.00
1592;DHT22;789;51.612;7.510;2023-08-24T06:57:56;23.50;1.00
1592;DHT22;789;51.612;7.510;2023-08-24T07:00:23;24.00;1.00
1592;DHT22;789;51.612;7.510;2023-08-24T07:02:50;24.30;1.00
1592;DHT22;789;51.612;7.510;2023-08-24T07:05:18;24.60;1.00
1592;DHT22;789;51.612;7.510;2023-08-24T07:07:47;24.80;1.00
1592;DHT22;789;51.612;7.510;2023-08-24T07:10:15;25.10;1.00
1592;DHT22;789;51.612;7.510;2023-08-24T07:12:43;25.40;1.00
1592;DHT22;789;51.612;7.510;2023-08-24T07:15:11;25.80;1.00
1592;DHT22;789;51.612;7.510;2023-08-24T07:17:38;26.10;1.00
1592;DHT22;789;51.612;7.510;2023-08-24T07:20:06;26.40;1.00
1592;DHT22;789;51.612;7.510;2023-08-24T07:22:36;26.70;1.00
1592;DHT22;789;51.612;7.510;2023-08-24T07:25:07;27.10;1.00
1592;DHT22;789;51.612;7.510;2023-08-24T07:27:36;27.50;1.00
1592;DHT22;789;51.612;7.510;2023-08-24T07:30:04;28.00;1.00
1592;DHT22;789;51.612;7.510;2023-08-24T07:32:33;28.50;1.00
1592;DHT22;789;51.612;7.510;2023-08-24T07:35:00;28.80;1.00
1592;DHT22;789;51.612;7.510;2023-08-24T07:37:27;29.30;1.00
1592;DHT22;789;51.612;7.510;2023-08-24T07:39:54;29.80;1.00
1592;DHT22;789;51.612;7.510;2023-08-24T07:42:24;30.60;1.00
1592;DHT22;789;51.612;7.510;2023-08-24T07:44:52;31.10;1.00
1592;DHT22;789;51.612;7.510;2023-08-24T07:47:19;31.70;1.00
1592;DHT22;789;51.612;7.510;2023-08-24T07:49:46;32.50;1.00
1592;DHT22;789;51.612;7.510;2023-08-24T07:52:14;33.10;1.00
1592;DHT22;789;51.612;7.510;2023-08-24T07:54:41;33.70;1.00
1592;DHT22;789;51.612;7.510;2023-08-24T07:57:10;34.50;1.00
1592;DHT22;789;51.612;7.510;2023-08-24T07:59:38;35.30;1.00
1592;DHT22;789;51.612;7.510;2023-08-24T08:02:06;36.20;1.00
1592;DHT22;789;51.612;7.510;2023-08-24T08:04:33;36.60;1.00
1592;DHT22;789;51.612;7.510;2023-08-24T08:07:00;36.80;1.00
1592;DHT22;789;51.612;7.510;2023-08-24T08:09:26;37.10;1.00
1592;DHT22;789;51.612;7.510;2023-08-24T08:11:53;37.60;1.00
1592;DHT22;789;51.612;7.510;2023-08-24T08:14:20;38.30;1.00
1592;DHT22;789;51.612;7.510;2023-08-24T08:16:48;38.90;1.00
1592;DHT22;789;51.612;7.510;2023-08-24T08:19:15;39.60;1.00
1592;DHT22;789;51.612;7.510;2023-08-24T08:21:45;40.10;1.00
1592;DHT22;789;51.612;7.510;2023-08-24T08:24:12;40.50;1.00
1592;DHT22;789;51.612;7.510;2023-08-24T08:26:38;40.70;1.00
1592;DHT22;789;51.612;7.510;2023-08-24T08:29:05;41.10;1.00
1592;DHT22;789;51.612;7.510;2023-08-24T08:31:32;41.60;1.00
1592;DHT22;789;51.612;7.510;2023-08-24T08:34:00;42.10;1.00
1592;DHT22;789;51.612;7.510;2023-08-24T08:36:29;42.40;1.00
1592;DHT22;789;51.612;7.510;2023-08-24T08:38:57;42.70;1.00
1592;DHT22;789;51.612;7.510;2023-08-24T08:41:27;43.10;1.00
1592;DHT22;789;51.612;7.510;2023-08-24T08:43:57;43.60;1.00
1592;DHT22;789;51.612;7.510;2023-08-24T08:46:27;44.10;1.00
1592;DHT22;789;51.612;7.510;2023-08-24T08:48:55;44.60;1.00
1592;DHT22;789;51.612;7.510;2023-08-24T08:51:27;44.60;1.00
1592;DHT22;789;51.612;7.510;2023-08-24T08:53:55;44.60;1.00
1592;DHT22;789;51.612;7.510;2023-08-24T08:56:23;44.80;1.00
1592;DHT22;789;51.612;7.510;2023-08-24T08:58:51;45.10;1.00
1592;DHT22;789;51.612;7.510;2023-08-24T09:01:18;45.60;1.00
1592;DHT22;789;51.612;7.510;2023-08-24T09:03:46;46.10;1.00
1592;DHT22;789;51.612;7.510;2023-08-24T09:06:13;46.60;1.00
1592;DHT22;789;51.612;7.510;2023-08-24T09:08:41;47.10;1.00
1592;DHT22;789;51.612;7.510;2023-08-24T09:11:08;47.60;1.00
1592;DHT22;789;51.612;7.510;2023-08-24T09:13:35;48.10;1.00
1592;DHT22;789;51.612;7.510;2023-08-24T09:16:09;48.40;1.00
1592;DHT22;789;51.612;7.510;2023-08-24T09:18:46;48.70;1.00
1592;DHT22;789;51.612;7.510;2023-08-24T09:21:15;48.80;1.00
1592;DHT22;789;51.612;7.510;2023-08-24T09:23:46;48.90;1.00
1592;DHT22;789;51.612;7.510;2023-08-24T09:26:27;48.60;1.00
1592;DHT22;789;51.612;7.510;2023-08-24T09:28:54;48.40;1.00
1592;DHT22;789;51.612;7.510;2023-08-24T09:31:20;48.30;1.00
1592;DHT22;789;51.612;7.510;2023-08-24T09:33:47;48.50;1.00
1592;DHT22;789;51.612;7.510;2023-08-24T09:36:17;48.60;1.00
1592;DHT22;789;51.612;7.510;2023-08-24T09:38:49;48.60;1.00
1592;DHT22;789;51.612;7.510;2023-08-24T09:41:19;48.60;1.00
1592;DHT22;789;51.612;7.510;2023-08-24T09:43:46;48.60;1.00
1592;DHT22;789;51.612;7.510;2023-08-24T09:46:18;48.40;1.00
1592;DHT22;789;51.612;7.510;2023-08-24T09:48:52;48.00;1.00
1592;DHT22;789;51.612;7.510;2023-08-24T09:51:20;48.00;1.00
1592;DHT22;789;51.612;7.510;2023-08-24T09:53:48;47.80;1.00
1592;DHT22;789;51.612;7.510;2023-08-24T09:56:16;47.30;1.00
1592;DHT22;789;51.612;7.510;2023-08-24T09:58:43;46.90;1.00
1592;DHT22;789;51.612;7.510;2023-08-24T10:01:12;46.30;1.00
1592;DHT22;789;51.612;7.510;2023-08-24T10:03:40;45.90;1.00
1592;DHT22;789;51.612;7.510;2023-08-24T10:06:10;45.80;1.00
1592;DHT22;789;51.612;7.510;2023-08-24T10:08:39;45.70;1.00
1592;DHT22;789;51.612;7.510;2023-08-24T10:11:10;45.60;1.00
1592;DHT22;789;51.612;7.510;2023-08-24T10:13:41;45.30;1.00
1592;DHT22;789;51.612;7.510;2023-08-24T10:16:12;45.20;1.00
1592;DHT22;789;51.612;7.510;2023-08-24T10:18:41;45.00;1.00
1592;DHT22;789;51.612;7.510;2023-08-24T10:21:10;45.00;1.00
1592;DHT22;789;51.612;7.510;2023-08-24T10:23:45;45.00;1.00
1592;DHT22;789;51.612;7.510;2023-08-24T10:26:17;45.10;1.00
1592;DHT22;789;51.612;7.510;2023-08-24T10:28:46;45.10;1.00
1592;DHT22;789;51.612;7.510;2023-08-24T10:31:14;45.20;1.00
1592;DHT22;789;51.612;7.510;2023-08-24T10:33:42;45.60;1.00
1592;DHT22;789;51.612;7.510;2023-08-24T10:36:11;46.10;1.00
1592;DHT22;789;51.612;7.510;2023-08-24T10:38:40;46.40;1.00
1592;DHT22;789;51.612;7.510;2023-08-24T10:41:10;46.30;1.00
1592;DHT22;789;51.612;7.510;2023-08-24T10:43:41;46.40;1.00
1592;DHT22;789;51.612;7.510;2023-08-24T10:46:13;46.50;1.00
1592;DHT22;789;51.612;7.510;2023-08-24T10:48:58;46.50;1.00
1592;DHT22;789;51.612;7.510;2023-08-24T10:51:27;46.50;1.00
1592;DHT22;789;51.612;7.510;2023-08-24T10:53:56;46.40;1.00
1592;DHT22;789;51.612;7.510;2023-08-24T10:56:30;46.30;1.00
1592;DHT22;789;51.612;7.510;2023-08-24T10:59:15;45.90;1.00
1592;DHT22;789;51.612;7.510;2023-08-24T11:01:43;44.90;1.00
1592;DHT22;789;51.612;7.510;2023-08-24T11:04:24;44.00;1.00
1592;DHT22;789;51.612;7.510;2023-08-24T11:06:55;43.40;1.00
1592;DHT22;789;51.612;7.510;2023-08-24T11:09:23;43.10;1.00
1592;DHT22;789;51.612;7.510;2023-08-24T11:11:57;42.50;1.00
1592;DHT22;789;51.612;7.510;2023-08-24T11:14:26;42.10;1.00
1592;DHT22;789;51.612;7.510;2023-08-24T11:16:57;41.80;1.00
1592;DHT22;789;51.612;7.510;2023-08-24T11:19:24;41.50;1.00
1592;DHT22;789;51.612;7.510;2023-08-24T11:21:51;41.30;1.00
1592;DHT22;789;51.612;7.510;2023-08-24T11:24:19;40.80;1.00
1592;DHT22;789;51.612;7.510;2023-08-24T11:26:48;40.60;1.00
1592;DHT22;789;51.612;7.510;2023-08-24T11:29:15;40.30;1.00
1592;DHT22;789;51.612;7.510;2023-08-24T11:31:45;40.10;1.00
1592;DHT22;789;51.612;7.510;2023-08-24T11:34:15;39.90;1.00
1592;DHT22;789;51.612;7.510;2023-08-24T11:36:43;39.80;1.00
1592;DHT22;789;51.612;7.510;2023-08-24T11:39:15;39.30;1.00
1592;DHT22;789;51.612;7.510;2023-08-24T11:41:43;38.70;1.00
1592;DHT22;789;51.612;7.510;2023-08-24T11:44:11;38.00;1.00
1592;DHT22;789;51.612;7.510;2023-08-24T11:46:38;37.30;1.00
1592;DHT22;789;51.612;7.510;2023-08-24T11:49:07;35.90;1.00
1592;DHT22;789;51.612;7.510;2023-08-24T11:51:36;34.80;1.00
1592;DHT22;789;51.612;7.510;2023-08-24T11:54:04;34.20;1.00
1592;DHT22;789;51.612;7.510;2023-08-24T11:56:31;33.90;1.00
1592;DHT22;789;51.612;7.510;2023-08-24T11:58:58;34.00;1.00
1592;DHT22;789;51.612;7.510;2023-08-24T12:01:26;33.70;1.00
1592;DHT22;789;51.612;7.510;2023-08-24T12:03:54;33.40;1.00
1592;DHT22;789;51.612;7.510;2023-08-24T12:06:26;32.80;1.00
1592;DHT22;789;51.612;7.510;2023-08-24T12:08:54;32.50;1.00
1592;DHT22;789;51.612;7.510;2023-08-24T12:11:21;32.30;1.00
1592;DHT22;789;51.612;7.510;2023-08-24T12:13:52;32.30;1.00
1592;DHT22;789;51.612;7.510;2023-08-24T12:16:20;32.20;1.00
1592;DHT22;789;51.612;7.510;2023-08-24T12:18:53;32.00;1.00
1592;DHT22;789;51.612;7.510;2023-08-24T12:21:23;31.90;1.00
1592;DHT22;789;51.612;7.510;2023-08-24T12:23:57;31.90;1.00
1592;DHT22;789;51.612;7.510;2023-08-24T12:26:27;31.70;1.00
1592;DHT22;789;51.612;7.510;2023-08-24T12:28:55;31.60;1.00
1592;DHT22;789;51.612;7.510;2023-08-24T12:31:26;31.60;1.00
1592;DHT22;789;51.612;7.510;2023-08-24T12:34:02;31.60;1.00
1592;DHT22;789;51.612;7.510;2023-08-24T12:36:32;31.60;1.00
1592;DHT22;789;51.612;7.510;2023-08-24T12:38:59;31.70;1.00
1592;DHT22;789;51.612;7.510;2023-08-24T12:41:26;31.70;1.00
1592;DHT22;789;51.612;7.510;2023-08-24T12:43:54;31.70;1.00
1592;DHT22;789;51.612;7.510;2023-08-24T12:46:21;31.70;1.00
1592;DHT22;789;51.612;7.510;2023-08-24T12:48:49;31.90;1.00
1592;DHT22;789;51.612;7.510;2023-08-24T12:51:16;32.00;1.00
1592;DHT22;789;51.612;7.510;2023-08-24T12:53:46;32.10;1.00
1592;DHT22;789;51.612;7.510;2023-08-24T12:56:16;32.20;1.00
1592;DHT22;789;51.612;7.510;2023-08-24T12:58:46;32.40;1.00
1592;DHT22;789;51.612;7.510;2023-08-24T13:01:13;32.40;1.00
1592;DHT22;789;51.612;7.510;2023-08-24T13:03:40;32.40;1.00
1592;DHT22;789;51.612;7.510;2023-08-24T13:06:07;32.10;1.00
1592;DHT22;789;51.612;7.510;2023-08-24T13:08:34;31.90;1.00
1592;DHT22;789;51.612;7.510;2023-08-24T13:11:02;31.80;1.00
1592;DHT22;789;51.612;7.510;2023-08-24T13:13:29;31.70;1.00
1592;DHT22;789;51.612;7.510;2023-08-24T13:15:56;31.50;1.00
1592;DHT22;789;51.612;7.510;2023-08-24T13:18:23;31.40;1.00
1592;DHT22;789;51.612;7.510;2023-08-24T13:20:50;31.30;1.00
1592;DHT22;789;51.612;7.510;2023-08-24T13:23:16;31.20;1.00
1592;DHT22;789;51.612;7.510;2023-08-24T13:25:43;31.10;1.00
1592;DHT22;789;51.612;7.510;2023-08-24T13:28:11;31.00;1.00
1592;DHT22;789;51.612;7.510;2023-08-24T13:30:38;30.90;1.00
1592;DHT22;789;51.612;7.510;2023-08-24T13:33:06;30.70;1.00
1592;DHT22;789;51.612;7.510;2023-08-24T13:35:33;30.70;1.00
1592;DHT22;789;51.612;7.510;2023-08-24T13:38:00;30.50;1.00
1592;DHT22;789;51.612;7.510;2023-08-24T13:40:27;30.50;1.00
1592;DHT22;789;51.612;7.510;2023-08-24T13:42:54;30.50;1.00
1592;DHT22;789;51.612;7.510;2023-08-24T13:45:22;30.20;1.00
1592;DHT22;789;51.612;7.510;2023-08-24T13:47:49;30.00;1.00
1592;DHT22;789;51.612;7.510;2023-08-24T13:50:16;29.90;1.00
1592;DHT22;789;51.612;7.510;2023-08-24T13:52:43;29.80;1.00
1592;DHT22;789;51.612;7.510;2023-08-24T13:55:10;29.80;1.00
1592;DHT22;789;51.612;7.510;2023-08-24T13:57:36;29.80;1.00
1592;DHT22;789;51.612;7.510;2023-08-24T14:00:04;29.90;1.00
1592;DHT22;789;51.612;7.510;2023-08-24T14:02:35;30.00;1.00
1592;DHT22;789;51.612;7.510;2023-08-24T14:05:06;30.00;1.00
1592;DHT22;789;51.612;7.510;2023-08-24T14:07:34;30.10;1.00
1592;DHT22;789;51.612;7.510;2023-08-24T14:10:02;30.20;1.00
1592;DHT22;789;51.612;7.510;2023-08-24T14:12:29;30.30;1.00
1592;DHT22;789;51.612;7.510;2023-08-24T14:14:56;30.40;1.00
1592;DHT22;789;51.612;7.510;2023-08-24T14:17:23;30.50;1.00
1592;DHT22;789;51.612;7.510;2023-08-24T14:19:51;30.70;1.00
1592;DHT22;789;51.612;7.510;2023-08-24T14:22:18;30.80;1.00
1592;DHT22;789;51.612;7.510;2023-08-24T14:24:44;30.90;1.00
1592;DHT22;789;51.612;7.510;2023-08-24T14:27:13;31.00;1.00
1592;DHT22;789;51.612;7.510;2023-08-24T14:29:40;31.00;1.00
1592;DHT22;789;51.612;7.510;2023-08-24T14:32:07;31.00;1.00
1592;DHT22;789;51.612;7.510;2023-08-24T14:34:34;30.80;1.00
1592;DHT22;789;51.612;7.510;2023-08-24T14:37:02;30.80;1.00
1592;DHT22;789;51.612;7.510;2023-08-24T14:39:29;30.70;1.00
1592;DHT22;789;51.612;7.510;2023-08-24T14:41:56;30.50;1.00
1592;DHT22;789;51.612;7.510;2023-08-24T14:44:23;30.40;1.00
1592;DHT22;789;51.612;7.510;2023-08-24T14:46:50;30.20;1.00
1592;DHT22;789;51.612;7.510;2023-08-24T14:49:17;30.10;1.00
1592;DHT22;789;51.612;7.510;2023-08-24T14:51:44;30.10;1.00
1592;DHT22;789;51.612;7.510;2023-08-24T14:54:13;30.00;1.00
1592;DHT22;789;51.612;7.510;2023-08-24T14:56:44;30.00;1.00
1592;DHT22;789;51.612;7.510;2023-08-24T14:59:16;30.00;1.00
1592;DHT22;789;51.612;7.510;2023-08-24T15:01:45;30.00;1.00
1592;DHT22;789;51.612;7.510;2023-08-24T15:04:12;29.90;1.00
1592;DHT22;789;51.612;7.510;2023-08-24T15:06:39;29.90;1.00
1592;DHT22;789;51.612;7.510;2023-08-24T15:09:07;29.90;1.00
1592;DHT22;789;51.612;7.510;2023-08-24T15:11:35;29.90;1.00
1592;DHT22;789;51.612;7.510;2023-08-24T15:14:02;30.00;1.00
1592;DHT22;789;51.612;7.510;2023-08-24T15:16:31;29.80;1.00
1592;DHT22;789;51.612;7.510;2023-08-24T15:18:57;29.70;1.00
1592;DHT22;789;51.612;7.510;2023-08-24T15:21:24;29.60;1.00
1592;DHT22;789;51.612;7.510;2023-08-24T15:23:51;29.60;1.00
1592;DHT22;789;51.612;7.510;2023-08-24T15:26:18;29.60;1.00
1592;DHT22;789;51.612;7.510;2023-08-24T15:29:08;29.60;1.00
1592;DHT22;789;51.612;7.510;2023-08-24T15:31:36;29.50;1.00
1592;DHT22;789;51.612;7.510;2023-08-24T15:34:03;29.40;1.00
1592;DHT22;789;51.612;7.510;2023-08-24T15:36:30;29.20;1.00
1592;DHT22;789;51.612;7.510;2023-08-24T15:38:57;29.10;1.00
1592;DHT22;789;51.612;7.510;2023-08-24T15:41:23;29.00;1.00
1592;DHT22;789;51.612;7.510;2023-08-24T15:43:50;29.00;1.00
1592;DHT22;789;51.612;7.510;2023-08-24T15:46:19;28.90;1.00
1592;DHT22;789;51.612;7.510;2023-08-24T15:48:46;28.70;1.00
1592;DHT22;789;51.612;7.510;2023-08-24T15:51:12;28.50;1.00
1592;DHT22;789;51.612;7.510;2023-08-24T15:53:39;28.40;1.00
1592;DHT22;789;51.612;7.510;2023-08-24T15:56:06;28.20;1.00
1592;DHT22;789;51.612;7.510;2023-08-24T15:58:34;28.00;1.00
1592;DHT22;789;51.612;7.510;2023-08-24T16:01:01;27.70;1.00
1592;DHT22;789;51.612;7.510;2023-08-24T16:03:31;27.50;1.00
1592;DHT22;789;51.612;7.510;2023-08-24T16:05:58;27.40;1.00
1592;DHT22;789;51.612;7.510;2023-08-24T16:08:24;27.30;1.00
1592;DHT22;789;51.612;7.510;2023-08-24T16:10:55;27.20;1.00
1592;DHT22;789;51.612;7.510;2023-08-24T16:13:23;27.20;1.00
1592;DHT22;789;51.612;7.510;2023-08-24T16:15:53;27.20;1.00
1592;DHT22;789;51.612;7.510;2023-08-24T16:18:22;27.20;1.00
1592;DHT22;789;51.612;7.510;2023-08-24T16:20:51;27.20;1.00
1592;DHT22;789;51.612;7.510;2023-08-24T16:23:18;27.20;1.00
1592;DHT22;789;51.612;7.510;2023-08-24T16:25:45;27.10;1.00
1592;DHT22;789;51.612;7.510;2023-08-24T16:28:12;27.10;1.00
1592;DHT22;789;51.612;7.510;2023-08-24T16:30:39;27.10;1.00
1592;DHT22;789;51.612;7.510;2023-08-24T16:33:06;27.00;1.00
1592;DHT22;789;51.612;7.510;2023-08-24T16:35:33;26.90;1.00
1592;DHT22;789;51.612;7.510;2023-08-24T16:38:04;26.80;1.00
1592;DHT22;789;51.612;7.510;2023-08-24T16:40:33;26.70;1.00